createdAt,value
2018-12-01T00:00:23.199Z,8.79
2018-12-01T00:01:23.185Z,8.74
2018-12-01T00:02:23.158Z,8.71
2018-12-01T00:03:23.130Z,8.74
2018-12-01T00:04:23.115Z,8.75
2018-12-01T00:05:23.085Z,8.72
2018-12-01T00:06:23.078Z,8.64
2018-12-01T00:07:23.044Z,8.63
2018-12-01T00:08:23.026Z,8.69
2018-12-01T00:09:22.992Z,8.63
2018-12-01T00:10:22.968Z,8.60
2018-12-01T00:11:22.952Z,8.60
2018-12-01T00:12:22.920Z,8.68
2018-12-01T00:13:22.898Z,8.64
2018-12-01T00:14:22.891Z,8.52
2018-12-01T00:15:22.852Z,8.52
2018-12-01T00:16:22.827Z,8.60
2018-12-01T00:17:22.803Z,8.49
2018-12-01T00:18:22.781Z,8.53
2018-12-01T00:19:22.766Z,8.53
2018-12-01T00:20:22.733Z,8.60
2018-12-01T00:21:22.710Z,8.52
2018-12-01T00:22:22.688Z,8.45
2018-12-01T00:23:22.673Z,8.57
2018-12-01T00:24:22.648Z,8.52
2018-12-01T00:25:22.617Z,8.49
2018-12-01T00:26:22.608Z,8.49
2018-12-01T00:27:22.576Z,8.42
2018-12-01T00:28:22.549Z,8.53
2018-12-01T00:29:22.526Z,8.46
2018-12-01T00:30:22.602Z,8.52
2018-12-01T00:31:22.479Z,8.50
2018-12-01T00:32:22.453Z,8.41
2018-12-01T00:33:22.444Z,8.50
2018-12-01T00:34:22.407Z,8.50
2018-12-01T00:35:22.392Z,8.45
2018-12-01T00:36:22.385Z,8.45
2018-12-01T00:37:22.345Z,8.46
2018-12-01T00:38:22.315Z,8.52
2018-12-01T00:39:22.304Z,8.42
2018-12-01T00:40:22.277Z,8.49
2018-12-01T00:41:22.395Z,8.46
2018-12-01T00:42:22.227Z,8.46
2018-12-01T00:43:22.197Z,8.44
2018-12-01T00:44:22.176Z,8.46
2018-12-01T00:45:22.159Z,8.50
2018-12-01T00:46:22.127Z,8.49
2018-12-01T00:47:22.103Z,8.42
2018-12-01T00:48:22.079Z,8.44
2018-12-01T00:49:22.060Z,8.45
2018-12-01T00:50:22.032Z,8.50
2018-12-01T00:51:22.010Z,8.46
2018-12-01T00:52:21.991Z,8.49
2018-12-01T00:53:21.962Z,8.50
2018-12-01T00:54:21.941Z,8.46
2018-12-01T00:55:21.925Z,8.44
2018-12-01T00:56:21.891Z,8.50
2018-12-01T00:57:21.867Z,8.50
2018-12-01T00:58:21.845Z,8.54
2018-12-01T00:59:21.823Z,8.59
2018-12-01T01:00:21.798Z,8.54
2018-12-01T01:01:21.777Z,8.57
2018-12-01T01:02:21.751Z,8.44
2018-12-01T01:03:21.729Z,8.44
2018-12-01T01:04:21.706Z,8.45
2018-12-01T01:05:21.683Z,8.50
2018-12-01T01:06:21.909Z,8.44
2018-12-01T01:07:21.636Z,8.46
2018-12-01T01:08:21.613Z,8.41
2018-12-01T01:09:21.587Z,8.45
2018-12-01T01:10:21.617Z,8.44
2018-12-01T01:11:21.548Z,8.46
2018-12-01T01:12:21.516Z,8.39
2018-12-01T01:13:21.495Z,8.42
2018-12-01T01:14:21.472Z,8.42
2018-12-01T01:15:21.450Z,8.32
2018-12-01T01:16:21.440Z,8.36
2018-12-01T01:17:21.403Z,8.36
2018-12-01T01:18:21.382Z,8.38
2018-12-01T01:19:21.359Z,8.36
2018-12-01T01:20:21.332Z,8.36
2018-12-01T01:21:21.306Z,8.34
2018-12-01T01:22:21.287Z,8.27
2018-12-01T01:23:21.260Z,8.28
2018-12-01T01:24:21.237Z,8.35
2018-12-01T01:25:21.213Z,8.34
2018-12-01T01:26:21.196Z,8.24
2018-12-01T01:27:21.165Z,8.32
2018-12-01T01:28:21.147Z,8.27
2018-12-01T01:29:21.117Z,8.24
2018-12-01T01:30:21.119Z,8.26
2018-12-01T01:31:21.078Z,8.24
2018-12-01T01:32:21.052Z,8.27
2018-12-01T01:33:21.025Z,8.23
2018-12-01T01:34:21.003Z,8.21
2018-12-01T01:35:20.992Z,8.21
2018-12-01T01:36:20.954Z,8.18
2018-12-01T01:37:20.928Z,8.20
2018-12-01T01:38:20.919Z,8.21
2018-12-01T01:39:20.883Z,8.26
2018-12-01T01:40:20.868Z,8.21
2018-12-01T01:41:20.836Z,8.18
2018-12-01T01:42:20.823Z,8.21
2018-12-01T01:43:20.790Z,8.27
2018-12-01T01:44:20.767Z,8.16
2018-12-01T01:45:20.740Z,8.20
2018-12-01T01:46:20.718Z,8.14
2018-12-01T01:47:20.695Z,8.14
2018-12-01T01:48:20.670Z,8.06
2018-12-01T01:49:20.654Z,8.13
2018-12-01T01:50:20.624Z,8.13
2018-12-01T01:51:20.600Z,8.05
2018-12-01T01:52:20.589Z,8.03
2018-12-01T01:53:20.554Z,8.03
2018-12-01T01:54:20.527Z,8.03
2018-12-01T01:55:20.506Z,8.06
2018-12-01T01:56:20.485Z,8.02
2018-12-01T01:57:20.457Z,8.08
2018-12-01T01:58:20.435Z,7.96
2018-12-01T01:59:20.415Z,7.90
2018-12-01T02:00:20.393Z,7.95
2018-12-01T02:01:20.362Z,7.98
2018-12-01T02:02:20.339Z,7.95
2018-12-01T02:03:20.315Z,7.87
2018-12-01T02:04:20.291Z,7.90
2018-12-01T02:05:20.274Z,7.91
2018-12-01T02:06:20.246Z,8.06
2018-12-01T02:07:20.228Z,7.98
2018-12-01T02:08:20.195Z,7.93
2018-12-01T02:09:20.196Z,7.91
2018-12-01T02:10:20.167Z,7.96
2018-12-01T02:11:20.126Z,7.93
2018-12-01T02:12:20.112Z,7.91
2018-12-01T02:13:20.077Z,7.93
2018-12-01T02:14:20.069Z,7.93
2018-12-01T02:15:20.041Z,7.88
2018-12-01T02:16:20.006Z,7.98
2018-12-01T02:17:19.983Z,7.85
2018-12-01T02:18:19.964Z,7.90
2018-12-01T02:19:19.940Z,7.84
2018-12-01T02:20:19.910Z,7.90
2018-12-01T02:21:19.896Z,7.90
2018-12-01T02:22:19.863Z,7.83
2018-12-01T02:23:19.841Z,7.90
2018-12-01T02:24:19.818Z,7.87
2018-12-01T02:25:19.799Z,7.74
2018-12-01T02:26:19.773Z,7.84
2018-12-01T02:27:19.753Z,7.88
2018-12-01T02:28:19.723Z,7.75
2018-12-01T02:29:19.696Z,7.75
2018-12-01T02:30:19.693Z,7.75
2018-12-01T02:31:19.649Z,7.88
2018-12-01T02:32:19.634Z,7.78
2018-12-01T02:33:19.610Z,7.77
2018-12-01T02:34:19.578Z,7.75
2018-12-01T02:35:19.573Z,7.74
2018-12-01T02:36:19.534Z,7.77
2018-12-01T02:37:19.507Z,7.81
2018-12-01T02:38:19.486Z,7.80
2018-12-01T02:39:19.458Z,7.81
2018-12-01T02:40:19.452Z,7.77
2018-12-01T02:41:19.410Z,7.83
2018-12-01T02:42:19.386Z,7.74
2018-12-01T02:43:19.363Z,7.80
2018-12-01T02:44:19.339Z,7.80
2018-12-01T02:45:19.314Z,7.74
2018-12-01T02:46:19.291Z,7.74
2018-12-01T02:47:19.268Z,7.78
2018-12-01T02:48:19.241Z,7.77
2018-12-01T02:49:19.268Z,7.77
2018-12-01T02:50:19.195Z,7.85
2018-12-01T02:51:19.177Z,7.83
2018-12-01T02:52:19.146Z,7.77
2018-12-01T02:53:19.136Z,7.77
2018-12-01T02:54:19.104Z,7.77
2018-12-01T02:55:19.081Z,7.75
2018-12-01T02:56:19.058Z,7.78
2018-12-01T02:57:19.029Z,7.77
2018-12-01T02:58:19.003Z,7.83
2018-12-01T02:59:18.979Z,7.70
2018-12-01T03:00:18.953Z,7.75
2018-12-01T03:01:18.930Z,7.72
2018-12-01T03:02:18.907Z,7.74
2018-12-01T03:03:18.882Z,7.74
2018-12-01T03:04:18.857Z,7.69
2018-12-01T03:05:18.848Z,7.70
2018-12-01T03:06:18.813Z,7.67
2018-12-01T03:07:18.786Z,7.70
2018-12-01T03:08:18.761Z,7.67
2018-12-01T03:09:18.738Z,7.70
2018-12-01T03:10:18.713Z,7.69
2018-12-01T03:11:18.692Z,7.70
2018-12-01T03:12:18.674Z,7.70
2018-12-01T03:13:18.645Z,7.70
2018-12-01T03:14:18.617Z,7.59
2018-12-01T03:15:18.595Z,7.70
2018-12-01T03:16:18.622Z,7.67
2018-12-01T03:17:18.544Z,7.67
2018-12-01T03:18:18.537Z,7.62
2018-12-01T03:19:18.498Z,7.64
2018-12-01T03:20:18.483Z,7.72
2018-12-01T03:21:18.456Z,7.67
2018-12-01T03:22:18.425Z,7.59
2018-12-01T03:23:18.415Z,7.59
2018-12-01T03:24:18.378Z,7.66
2018-12-01T03:25:18.352Z,7.70
2018-12-01T03:26:18.327Z,7.64
2018-12-01T03:27:18.303Z,7.67
2018-12-01T03:28:18.280Z,7.62
2018-12-01T03:29:18.257Z,7.62
2018-12-01T03:30:18.232Z,7.61
2018-12-01T03:31:18.212Z,7.58
2018-12-01T03:32:18.202Z,7.70
2018-12-01T03:33:18.159Z,7.59
2018-12-01T03:34:18.139Z,7.62
2018-12-01T03:35:18.116Z,7.59
2018-12-01T03:36:18.086Z,7.59
2018-12-01T03:37:18.061Z,7.59
2018-12-01T03:38:18.061Z,7.55
2018-12-01T03:39:18.013Z,7.59
2018-12-01T03:40:17.990Z,7.64
2018-12-01T03:41:17.966Z,7.51
2018-12-01T03:42:17.940Z,7.58
2018-12-01T03:43:17.919Z,7.50
2018-12-01T03:44:17.893Z,7.50
2018-12-01T03:45:17.869Z,7.46
2018-12-01T03:46:17.846Z,7.67
2018-12-01T03:47:17.829Z,7.59
2018-12-01T03:48:17.795Z,7.58
2018-12-01T03:49:17.773Z,7.48
2018-12-01T03:50:17.754Z,7.51
2018-12-01T03:51:17.725Z,7.51
2018-12-01T03:52:17.700Z,7.47
2018-12-01T03:53:17.677Z,7.55
2018-12-01T03:54:17.652Z,7.50
2018-12-01T03:55:17.626Z,7.50
2018-12-01T03:56:17.603Z,7.51
2018-12-01T03:57:17.586Z,7.46
2018-12-01T03:58:17.555Z,7.48
2018-12-01T03:59:17.535Z,7.46
2018-12-01T04:00:17.509Z,7.44
2018-12-01T04:01:17.487Z,7.43
2018-12-01T04:02:17.456Z,7.44
2018-12-01T04:03:17.434Z,7.46
2018-12-01T04:04:17.416Z,7.46
2018-12-01T04:05:17.384Z,7.48
2018-12-01T04:06:17.360Z,7.59
2018-12-01T04:07:17.335Z,7.51
2018-12-01T04:08:17.466Z,7.56
2018-12-01T04:09:17.289Z,7.53
2018-12-01T04:10:17.264Z,7.46
2018-12-01T04:11:17.241Z,7.59
2018-12-01T04:12:17.215Z,7.51
2018-12-01T04:13:17.190Z,7.46
2018-12-01T04:14:17.175Z,7.59
2018-12-01T04:15:17.150Z,7.50
2018-12-01T04:16:17.121Z,7.58
2018-12-01T04:17:17.093Z,7.51
2018-12-01T04:18:17.069Z,7.47
2018-12-01T04:19:17.045Z,7.46
2018-12-01T04:20:17.020Z,7.48
2018-12-01T04:21:16.999Z,7.44
2018-12-01T04:22:16.972Z,7.46
2018-12-01T04:23:16.957Z,7.46
2018-12-01T04:24:16.923Z,7.51
2018-12-01T04:25:16.899Z,7.48
2018-12-01T04:26:16.879Z,7.61
2018-12-01T04:27:16.850Z,7.53
2018-12-01T04:28:16.834Z,7.50
2018-12-01T04:29:16.801Z,7.55
2018-12-01T04:30:16.778Z,7.62
2018-12-01T04:31:16.754Z,7.64
2018-12-01T04:32:16.728Z,7.58
2018-12-01T04:33:16.706Z,7.62
2018-12-01T04:34:16.686Z,7.64
2018-12-01T04:35:16.658Z,7.59
2018-12-01T04:36:16.632Z,7.61
2018-12-01T04:37:16.608Z,7.64
2018-12-01T04:38:16.584Z,7.61
2018-12-01T04:39:16.613Z,7.62
2018-12-01T04:40:16.536Z,7.66
2018-12-01T04:41:16.510Z,7.69
2018-12-01T04:42:16.489Z,7.66
2018-12-01T04:43:16.464Z,7.75
2018-12-01T04:44:16.442Z,7.64
2018-12-01T04:45:16.415Z,7.80
2018-12-01T04:46:16.395Z,7.77
2018-12-01T04:47:16.367Z,7.75
2018-12-01T04:48:16.343Z,7.83
2018-12-01T04:49:16.328Z,7.74
2018-12-01T04:50:16.353Z,7.78
2018-12-01T04:51:16.271Z,7.78
2018-12-01T04:52:16.267Z,7.88
2018-12-01T04:53:16.222Z,7.88
2018-12-01T04:54:16.206Z,7.87
2018-12-01T04:55:16.178Z,7.81
2018-12-01T04:56:16.151Z,7.81
2018-12-01T04:57:16.128Z,7.91
2018-12-01T04:58:16.114Z,7.91
2018-12-01T04:59:16.078Z,7.91
2018-12-01T05:00:16.054Z,7.87
2018-12-01T05:01:16.027Z,7.96
2018-12-01T05:02:16.023Z,7.91
2018-12-01T05:03:15.982Z,7.93
2018-12-01T05:04:15.957Z,7.99
2018-12-01T05:05:15.935Z,7.93
2018-12-01T05:06:15.909Z,7.95
2018-12-01T05:07:15.893Z,7.87
2018-12-01T05:08:15.861Z,7.91
2018-12-01T05:09:15.840Z,8.02
2018-12-01T05:10:15.822Z,7.93
2018-12-01T05:11:15.791Z,7.98
2018-12-01T05:12:15.768Z,7.93
2018-12-01T05:13:15.742Z,7.91
2018-12-01T05:14:15.718Z,7.90
2018-12-01T05:15:15.798Z,7.95
2018-12-01T05:16:15.675Z,7.91
2018-12-01T05:17:15.646Z,7.95
2018-12-01T05:18:15.623Z,7.91
2018-12-01T05:19:15.603Z,7.91
2018-12-01T05:20:15.583Z,7.93
2018-12-01T05:21:15.560Z,7.91
2018-12-01T05:22:15.529Z,7.85
2018-12-01T05:23:15.503Z,7.88
2018-12-01T05:24:15.480Z,7.91
2018-12-01T05:25:15.456Z,7.91
2018-12-01T05:26:15.436Z,7.83
2018-12-01T05:27:15.408Z,7.88
2018-12-01T05:28:15.383Z,7.93
2018-12-01T05:29:15.363Z,7.95
2018-12-01T05:30:15.337Z,7.88
2018-12-01T05:31:15.313Z,7.93
2018-12-01T05:32:15.297Z,7.93
2018-12-01T05:33:15.271Z,7.88
2018-12-01T05:34:15.241Z,7.96
2018-12-01T05:35:15.216Z,7.88
2018-12-01T05:36:15.197Z,7.91
2018-12-01T05:37:15.168Z,7.90
2018-12-01T05:38:15.146Z,7.96
2018-12-01T05:39:15.120Z,7.93
2018-12-01T05:40:15.104Z,7.93
2018-12-01T05:41:15.088Z,7.98
2018-12-01T05:42:15.050Z,7.96
2018-12-01T05:43:15.029Z,7.96
2018-12-01T05:44:15.002Z,7.95
2018-12-01T05:45:14.981Z,7.91
2018-12-01T05:46:14.957Z,8.02
2018-12-01T05:47:14.930Z,7.96
2018-12-01T05:48:14.905Z,7.95
2018-12-01T05:49:14.881Z,7.93
2018-12-01T05:50:14.858Z,7.88
2018-12-01T05:51:14.837Z,7.99
2018-12-01T05:52:14.810Z,8.09
2018-12-01T05:53:14.787Z,7.98
2018-12-01T05:54:14.762Z,7.93
2018-12-01T05:55:14.739Z,8.06
2018-12-01T05:56:14.723Z,8.05
2018-12-01T05:57:14.692Z,8.05
2018-12-01T05:58:14.676Z,7.99
2018-12-01T05:59:14.643Z,8.13
2018-12-01T06:00:14.625Z,8.06
2018-12-01T06:01:14.595Z,8.03
2018-12-01T06:02:14.572Z,8.09
2018-12-01T06:03:14.556Z,8.03
2018-12-01T06:04:14.523Z,8.03
2018-12-01T06:05:14.500Z,8.03
2018-12-01T06:06:14.476Z,8.05
2018-12-01T06:07:14.454Z,8.03
2018-12-01T06:08:14.428Z,8.18
2018-12-01T06:09:14.406Z,8.13
2018-12-01T06:10:14.385Z,8.11
2018-12-01T06:11:14.357Z,8.03
2018-12-01T06:12:14.333Z,8.09
2018-12-01T06:13:14.309Z,8.09
2018-12-01T06:14:14.295Z,8.05
2018-12-01T06:15:14.262Z,8.13
2018-12-01T06:16:14.238Z,8.18
2018-12-01T06:17:14.218Z,8.16
2018-12-01T06:18:14.191Z,8.14
2018-12-01T06:19:14.168Z,8.18
2018-12-01T06:20:14.144Z,8.20
2018-12-01T06:21:14.121Z,8.09
2018-12-01T06:22:14.097Z,8.06
2018-12-01T06:23:14.076Z,8.18
2018-12-01T06:24:14.049Z,8.17
2018-12-01T06:25:14.029Z,8.21
2018-12-01T06:26:14.020Z,8.16
2018-12-01T06:27:13.980Z,8.17
2018-12-01T06:28:13.957Z,8.24
2018-12-01T06:29:13.934Z,8.18
2018-12-01T06:30:13.907Z,8.18
2018-12-01T06:31:13.885Z,8.23
2018-12-01T06:32:13.859Z,8.20
2018-12-01T06:33:13.842Z,8.21
2018-12-01T06:34:13.815Z,8.18
2018-12-01T06:35:13.791Z,8.27
2018-12-01T06:36:13.772Z,8.20
2018-12-01T06:37:13.745Z,8.18
2018-12-01T06:38:13.722Z,8.16
2018-12-01T06:39:13.695Z,8.18
2018-12-01T06:40:13.671Z,8.21
2018-12-01T06:41:13.648Z,8.21
2018-12-01T06:42:13.632Z,8.18
2018-12-01T06:43:13.601Z,8.20
2018-12-01T06:44:13.586Z,8.20
2018-12-01T06:45:13.554Z,8.18
2018-12-01T06:46:13.529Z,8.18
2018-12-01T06:47:13.514Z,8.20
2018-12-01T06:48:13.483Z,8.20
2018-12-01T06:49:13.558Z,8.26
2018-12-01T06:50:13.443Z,8.18
2018-12-01T06:51:13.412Z,8.27
2018-12-01T06:52:13.386Z,8.27
2018-12-01T06:53:13.362Z,8.23
2018-12-01T06:54:13.341Z,8.27
2018-12-01T06:55:13.318Z,8.27
2018-12-01T06:56:13.294Z,8.27
2018-12-01T06:57:13.269Z,8.24
2018-12-01T06:58:13.248Z,8.26
2018-12-01T06:59:13.232Z,8.20
2018-12-01T07:00:13.210Z,8.21
2018-12-01T07:01:13.183Z,8.32
2018-12-01T07:02:13.160Z,8.26
2018-12-01T07:03:13.129Z,8.26
2018-12-01T07:04:13.111Z,8.35
2018-12-01T07:05:13.092Z,8.31
2018-12-01T07:06:13.057Z,8.38
2018-12-01T07:07:13.035Z,8.31
2018-12-01T07:08:13.009Z,8.31
2018-12-01T07:09:12.992Z,8.27
2018-12-01T07:10:12.963Z,8.28
2018-12-01T07:11:12.947Z,8.35
2018-12-01T07:12:12.917Z,8.34
2018-12-01T07:13:12.891Z,8.31
2018-12-01T07:14:12.868Z,8.36
2018-12-01T07:15:12.844Z,8.34
2018-12-01T07:16:12.829Z,8.34
2018-12-01T07:17:12.797Z,8.35
2018-12-01T07:18:12.780Z,8.28
2018-12-01T07:19:12.752Z,8.36
2018-12-01T07:20:12.735Z,8.35
2018-12-01T07:21:12.702Z,8.39
2018-12-01T07:22:12.707Z,8.32
2018-12-01T07:23:12.656Z,8.41
2018-12-01T07:24:12.633Z,8.44
2018-12-01T07:25:12.709Z,8.42
2018-12-01T07:26:12.588Z,8.42
2018-12-01T07:27:12.559Z,8.44
2018-12-01T07:28:12.539Z,8.36
2018-12-01T07:29:12.522Z,8.45
2018-12-01T07:30:12.497Z,8.46
2018-12-01T07:31:12.487Z,8.34
2018-12-01T07:32:12.443Z,8.41
2018-12-01T07:33:12.420Z,8.36
2018-12-01T07:34:12.397Z,8.34
2018-12-01T07:35:12.381Z,8.39
2018-12-01T07:36:12.349Z,8.31
2018-12-01T07:37:12.326Z,8.34
2018-12-01T07:38:12.303Z,8.32
2018-12-01T07:39:12.278Z,8.31
2018-12-01T07:40:12.261Z,8.36
2018-12-01T07:41:12.240Z,8.32
2018-12-01T07:42:12.215Z,8.34
2018-12-01T07:43:12.186Z,8.34
2018-12-01T07:44:12.160Z,8.44
2018-12-01T07:45:12.140Z,8.45
2018-12-01T07:46:12.129Z,8.42
2018-12-01T07:47:12.092Z,8.46
2018-12-01T07:48:12.066Z,8.44
2018-12-01T07:49:12.048Z,8.45
2018-12-01T07:50:12.026Z,8.42
2018-12-01T07:51:11.999Z,8.42
2018-12-01T07:52:11.979Z,8.42
2018-12-01T07:53:11.957Z,8.42
2018-12-01T07:54:11.925Z,8.42
2018-12-01T07:55:11.901Z,8.41
2018-12-01T07:56:11.886Z,8.52
2018-12-01T07:57:11.857Z,8.61
2018-12-01T07:58:11.988Z,8.59
2018-12-01T07:59:11.813Z,8.59
2018-12-01T08:00:11.783Z,8.63
2018-12-01T08:01:11.761Z,8.66
2018-12-01T08:02:11.741Z,8.66
2018-12-01T08:03:11.718Z,8.63
2018-12-01T08:04:11.703Z,8.60
2018-12-01T08:05:11.669Z,8.71
2018-12-01T08:06:11.647Z,8.68
2018-12-01T08:07:11.625Z,8.71
2018-12-01T08:08:11.607Z,8.71
2018-12-01T08:09:11.582Z,8.75
2018-12-01T08:10:11.562Z,8.72
2018-12-01T08:11:11.530Z,8.75
2018-12-01T08:12:11.513Z,8.84
2018-12-01T08:13:11.481Z,8.87
2018-12-01T08:14:11.465Z,8.82
2018-12-01T08:15:11.437Z,8.84
2018-12-01T08:16:11.425Z,8.93
2018-12-01T08:17:11.389Z,9.02
2018-12-01T08:18:11.366Z,8.97
2018-12-01T08:19:11.343Z,9.02
2018-12-01T08:20:11.420Z,9.00
2018-12-01T08:21:11.296Z,8.84
2018-12-01T08:22:11.286Z,8.99
2018-12-01T08:23:11.304Z,8.95
2018-12-01T08:24:11.230Z,8.93
2018-12-01T08:25:11.215Z,8.87
2018-12-01T08:26:11.182Z,8.96
2018-12-01T08:27:11.162Z,8.97
2018-12-01T08:28:11.136Z,8.95
2018-12-01T08:29:11.113Z,8.99
2018-12-01T08:30:11.095Z,9.03
2018-12-01T08:31:11.075Z,9.02
2018-12-01T08:32:11.043Z,8.93
2018-12-01T08:33:11.022Z,9.02
2018-12-01T08:34:11.002Z,9.05
2018-12-01T08:35:10.975Z,9.05
2018-12-01T08:36:10.954Z,8.96
2018-12-01T08:37:10.931Z,8.87
2018-12-01T08:38:10.912Z,8.92
2018-12-01T08:39:10.884Z,9.09
2018-12-01T08:40:10.860Z,8.97
2018-12-01T08:41:10.844Z,9.09
2018-12-01T08:42:10.815Z,9.03
2018-12-01T08:43:10.802Z,9.16
2018-12-01T08:44:10.769Z,9.03
2018-12-01T08:45:10.744Z,9.09
2018-12-01T08:46:10.732Z,9.13
2018-12-01T08:47:10.702Z,9.15
2018-12-01T08:48:10.693Z,9.36
2018-12-01T08:49:10.655Z,9.33
2018-12-01T08:50:10.639Z,9.37
2018-12-01T08:51:10.612Z,9.40
2018-12-01T08:52:10.589Z,9.31
2018-12-01T08:53:10.572Z,9.30
2018-12-01T08:54:10.543Z,9.48
2018-12-01T08:55:10.520Z,9.51
2018-12-01T08:56:10.552Z,9.49
2018-12-01T08:57:10.473Z,9.44
2018-12-01T08:58:10.450Z,9.47
2018-12-01T08:59:10.438Z,9.48
2018-12-01T09:00:10.406Z,9.64
2018-12-01T09:01:10.384Z,9.51
2018-12-01T09:02:10.365Z,9.69
2018-12-01T09:03:10.339Z,9.82
2018-12-01T09:04:10.324Z,9.73
2018-12-01T09:05:10.297Z,9.74
2018-12-01T09:06:10.272Z,9.80
2018-12-01T09:07:10.250Z,9.73
2018-12-01T09:08:10.237Z,9.73
2018-12-01T09:09:10.231Z,9.73
2018-12-01T09:10:10.194Z,9.58
2018-12-01T09:11:10.173Z,9.58
2018-12-01T09:12:10.140Z,9.66
2018-12-01T09:13:10.118Z,9.73
2018-12-01T09:14:10.095Z,9.72
2018-12-01T09:15:10.078Z,9.81
2018-12-01T09:16:10.051Z,9.81
2018-12-01T09:17:10.028Z,10.05
2018-12-01T09:18:10.007Z,10.03
2018-12-01T09:19:09.986Z,9.97
2018-12-01T09:20:09.965Z,10.06
2018-12-01T09:21:09.999Z,10.06
2018-12-01T09:22:09.925Z,10.20
2018-12-01T09:23:09.898Z,10.15
2018-12-01T09:24:09.877Z,10.17
2018-12-01T09:25:09.858Z,10.17
2018-12-01T09:26:09.833Z,10.21
2018-12-01T09:27:09.816Z,10.28
2018-12-01T09:28:09.796Z,10.36
2018-12-01T09:29:09.767Z,10.36
2018-12-01T09:30:09.762Z,10.27
2018-12-01T09:31:09.728Z,10.36
2018-12-01T09:32:09.760Z,10.30
2018-12-01T09:33:09.682Z,10.30
2018-12-01T09:34:09.658Z,10.41
2018-12-01T09:35:09.642Z,10.38
2018-12-01T09:36:09.615Z,10.24
2018-12-01T09:37:09.594Z,10.20
2018-12-01T09:38:09.572Z,10.38
2018-12-01T09:39:09.551Z,10.46
2018-12-01T09:40:09.529Z,10.39
2018-12-01T09:41:09.531Z,10.34
2018-12-01T09:42:09.486Z,10.38
2018-12-01T09:43:09.466Z,10.51
2018-12-01T09:44:09.444Z,10.34
2018-12-01T09:45:09.422Z,10.24
2018-12-01T09:46:09.400Z,10.31
2018-12-01T09:47:09.383Z,10.38
2018-12-01T09:48:09.371Z,10.31
2018-12-01T09:49:09.375Z,10.25
2018-12-01T09:50:09.330Z,10.36
2018-12-01T09:51:09.296Z,10.36
2018-12-01T09:52:09.272Z,10.39
2018-12-01T09:53:09.253Z,10.43
2018-12-01T09:54:09.334Z,10.58
2018-12-01T09:55:09.215Z,10.43
2018-12-01T09:56:09.185Z,10.48
2018-12-01T09:57:09.173Z,10.51
2018-12-01T09:58:09.164Z,10.46
2018-12-01T09:59:09.139Z,10.36
2018-12-01T10:00:09.100Z,10.33
2018-12-01T10:01:09.092Z,10.39
2018-12-01T10:02:09.058Z,10.42
2018-12-01T10:03:09.050Z,10.45
2018-12-01T10:04:09.020Z,10.53
2018-12-01T10:05:09.008Z,10.79
2018-12-01T10:06:08.972Z,10.86
2018-12-01T10:07:08.961Z,11.05
2018-12-01T10:08:08.978Z,11.07
2018-12-01T10:09:08.916Z,11.12
2018-12-01T10:10:08.886Z,11.10
2018-12-01T10:11:08.866Z,11.13
2018-12-01T10:12:08.849Z,11.19
2018-12-01T10:13:08.829Z,11.31
2018-12-01T10:14:08.805Z,11.22
2018-12-01T10:15:08.781Z,11.08
2018-12-01T10:16:08.759Z,10.87
2018-12-01T10:17:08.739Z,10.90
2018-12-01T10:18:08.717Z,10.92
2018-12-01T10:19:08.705Z,11.02
2018-12-01T10:20:08.680Z,10.86
2018-12-01T10:21:08.656Z,10.95
2018-12-01T10:22:08.633Z,11.00
2018-12-01T10:23:08.611Z,11.27
2018-12-01T10:24:08.608Z,11.58
2018-12-01T10:25:08.571Z,11.96
2018-12-01T10:26:08.552Z,12.33
2018-12-01T10:27:08.540Z,12.62
2018-12-01T10:28:08.517Z,12.87
2018-12-01T10:29:08.491Z,12.87
2018-12-01T10:30:08.521Z,12.95
2018-12-01T10:31:08.446Z,13.19
2018-12-01T10:32:08.424Z,13.42
2018-12-01T10:33:08.407Z,13.28
2018-12-01T10:34:08.380Z,13.45
2018-12-01T10:35:08.359Z,13.43
2018-12-01T10:36:08.343Z,13.57
2018-12-01T10:37:08.324Z,13.68
2018-12-01T10:38:08.304Z,13.85
2018-12-01T10:39:08.283Z,14.05
2018-12-01T10:40:08.258Z,13.89
2018-12-01T10:41:08.235Z,13.28
2018-12-01T10:42:08.214Z,12.83
2018-12-01T10:43:08.208Z,12.47
2018-12-01T10:44:08.174Z,12.10
2018-12-01T10:45:08.155Z,11.81
2018-12-01T10:46:08.134Z,11.76
2018-12-01T10:47:08.128Z,11.81
2018-12-01T10:48:08.101Z,12.25
2018-12-01T10:49:08.073Z,12.57
2018-12-01T10:50:08.051Z,12.50
2018-12-01T10:51:08.035Z,12.35
2018-12-01T10:52:08.010Z,12.15
2018-12-01T10:53:08.002Z,11.86
2018-12-01T10:54:07.979Z,11.95
2018-12-01T10:55:07.951Z,12.35
2018-12-01T10:56:07.926Z,12.53
2018-12-01T10:57:07.905Z,12.55
2018-12-01T10:58:07.893Z,12.72
2018-12-01T10:59:07.864Z,12.75
2018-12-01T11:00:07.903Z,13.06
2018-12-01T11:01:07.825Z,13.55
2018-12-01T11:02:07.808Z,13.73
2018-12-01T11:03:07.810Z,13.31
2018-12-01T11:04:07.765Z,13.30
2018-12-01T11:05:07.748Z,13.26
2018-12-01T11:06:07.725Z,13.06
2018-12-01T11:07:07.700Z,13.11
2018-12-01T11:08:07.694Z,12.87
2018-12-01T11:09:07.672Z,13.31
2018-12-01T11:10:07.638Z,13.58
2018-12-01T11:11:07.620Z,13.58
2018-12-01T11:12:07.595Z,13.27
2018-12-01T11:13:07.576Z,12.76
2018-12-01T11:14:07.556Z,12.63
2018-12-01T11:15:07.542Z,12.58
2018-12-01T11:16:07.513Z,12.45
2018-12-01T11:17:07.503Z,12.23
2018-12-01T11:18:07.472Z,12.25
2018-12-01T11:19:07.451Z,12.14
2018-12-01T11:20:07.432Z,12.12
2018-12-01T11:21:07.413Z,12.18
2018-12-01T11:22:07.394Z,12.07
2018-12-01T11:23:07.371Z,12.18
2018-12-01T11:24:07.349Z,12.12
2018-12-01T11:25:07.344Z,11.86
2018-12-01T11:26:07.321Z,11.83
2018-12-01T11:27:07.297Z,11.88
2018-12-01T11:28:07.275Z,11.68
2018-12-01T11:29:07.248Z,11.63
2018-12-01T11:30:07.228Z,11.76
2018-12-01T11:31:07.213Z,11.86
2018-12-01T11:32:07.185Z,11.85
2018-12-01T11:33:07.193Z,11.77
2018-12-01T11:34:07.153Z,11.86
2018-12-01T11:35:07.124Z,11.74
2018-12-01T11:36:07.107Z,11.70
2018-12-01T11:37:07.084Z,11.68
2018-12-01T11:38:07.079Z,11.58
2018-12-01T11:39:07.040Z,11.48
2018-12-01T11:40:07.022Z,11.48
2018-12-01T11:41:07.002Z,11.31
2018-12-01T11:42:06.992Z,11.26
2018-12-01T11:43:06.963Z,11.34
2018-12-01T11:44:07.173Z,11.35
2018-12-01T11:45:06.922Z,11.38
2018-12-01T11:46:06.901Z,11.33
2018-12-01T11:47:06.878Z,11.51
2018-12-01T11:48:06.862Z,11.53
2018-12-01T11:49:06.837Z,11.45
2018-12-01T11:50:06.820Z,11.55
2018-12-01T11:51:06.807Z,11.49
2018-12-01T11:52:06.829Z,11.48
2018-12-01T11:53:06.763Z,11.41
2018-12-01T11:54:06.742Z,11.31
2018-12-01T11:55:06.717Z,11.23
2018-12-01T11:56:06.697Z,11.37
2018-12-01T11:57:06.676Z,11.40
2018-12-01T11:58:06.655Z,11.45
2018-12-01T11:59:06.632Z,11.55
2018-12-01T12:00:06.628Z,11.59
2018-12-01T12:01:06.595Z,11.63
2018-12-01T12:02:06.580Z,11.65
2018-12-01T12:03:06.549Z,11.74
2018-12-01T12:04:06.534Z,11.74
2018-12-01T12:05:06.507Z,11.81
2018-12-01T12:06:06.494Z,11.97
2018-12-01T12:07:06.471Z,11.96
2018-12-01T12:08:06.451Z,11.85
2018-12-01T12:09:06.428Z,11.88
2018-12-01T12:10:06.407Z,11.91
2018-12-01T12:11:06.386Z,11.85
2018-12-01T12:12:06.369Z,11.85
2018-12-01T12:13:06.343Z,11.95
2018-12-01T12:14:06.323Z,11.97
2018-12-01T12:15:06.302Z,11.89
2018-12-01T12:16:06.282Z,12.02
2018-12-01T12:17:06.261Z,11.93
2018-12-01T12:18:06.247Z,11.73
2018-12-01T12:19:06.230Z,11.68
2018-12-01T12:20:06.196Z,11.73
2018-12-01T12:21:06.226Z,11.85
2018-12-01T12:22:06.158Z,11.68
2018-12-01T12:23:06.135Z,11.68
2018-12-01T12:24:06.123Z,11.81
2018-12-01T12:25:06.101Z,11.80
2018-12-01T12:26:06.086Z,11.89
2018-12-01T12:27:06.067Z,12.02
2018-12-01T12:28:06.030Z,12.12
2018-12-01T12:29:06.023Z,12.18
2018-12-01T12:30:05.990Z,12.20
2018-12-01T12:31:05.982Z,12.17
2018-12-01T12:32:05.947Z,12.20
2018-12-01T12:33:05.929Z,12.20
2018-12-01T12:34:05.924Z,12.11
2018-12-01T12:35:05.891Z,11.89
2018-12-01T12:36:05.864Z,11.81
2018-12-01T12:37:05.845Z,11.83
2018-12-01T12:38:05.823Z,11.80
2018-12-01T12:39:05.821Z,11.83
2018-12-01T12:40:05.787Z,11.77
2018-12-01T12:41:05.769Z,11.62
2018-12-01T12:42:05.739Z,11.65
2018-12-01T12:43:05.718Z,11.74
2018-12-01T12:44:05.696Z,11.78
2018-12-01T12:45:05.685Z,11.71
2018-12-01T12:46:05.655Z,11.76
2018-12-01T12:47:05.640Z,11.68
2018-12-01T12:48:05.623Z,11.78
2018-12-01T12:49:05.592Z,11.70
2018-12-01T12:50:05.576Z,11.58
2018-12-01T12:51:05.552Z,11.56
2018-12-01T12:52:05.538Z,11.56
2018-12-01T12:53:05.510Z,11.59
2018-12-01T12:54:05.488Z,11.56
2018-12-01T12:55:05.475Z,11.63
2018-12-01T12:56:05.445Z,11.74
2018-12-01T12:57:05.439Z,11.73
2018-12-01T12:58:05.404Z,11.65
2018-12-01T12:59:05.386Z,11.67
2018-12-01T13:00:05.359Z,11.65
2018-12-01T13:01:05.340Z,11.60
2018-12-01T13:02:05.326Z,11.76
2018-12-01T13:03:05.306Z,11.78
2018-12-01T13:04:05.276Z,11.74
2018-12-01T13:05:05.256Z,11.80
2018-12-01T13:06:05.335Z,11.81
2018-12-01T13:07:05.216Z,11.81
2018-12-01T13:08:05.203Z,11.76
2018-12-01T13:09:05.184Z,11.74
2018-12-01T13:10:05.149Z,11.71